Time;durP1;ratioP1;P1;durP2;ratioP2;P2;SDS_P1;SDS_P2;PMS_P1;PMS_P2;Temp;Humidity;BMP_temperature;BMP_pressure;BME280_temperature;BME280_humidity;BME280_pressure;Samples;Min_cycle;Max_cycle;Signal;HPM_P1;HPM_P2
2022/02/06 00:01:45;;;;;;;6.67;2.27;;;5.20;99.90;;;;;;5116310;28;20252;-65
2022/02/06 00:04:13;;;;;;;6.60;1.97;;;5.20;99.90;;;;;;5114982;28;20210;-66
2022/02/06 00:06:40;;;;;;;3.80;1.67;;;5.20;99.90;;;;;;5115408;28;20208;-65
2022/02/06 00:09:07;;;;;;;4.60;1.70;;;5.20;99.90;;;;;;5116772;28;20225;-64
2022/02/06 00:11:33;;;;;;;3.83;2.10;;;5.10;99.90;;;;;;5116480;28;20233;-64
2022/02/06 00:14:00;;;;;;;10.00;2.23;;;5.00;99.90;;;;;;5116074;28;20210;-65
2022/02/06 00:16:27;;;;;;;6.43;2.23;;;5.10;99.90;;;;;;5115379;28;20314;-65
2022/02/06 00:18:54;;;;;;;7.43;2.50;;;5.10;99.90;;;;;;5117034;28;20203;-65
2022/02/06 00:21:22;;;;;;;6.63;2.47;;;5.10;99.90;;;;;;5118716;28;20200;-65
2022/02/06 00:23:52;;;;;;;5.20;2.40;;;5.00;99.90;;;;;;5118637;28;20681;-66
2022/02/06 00:26:28;;;;;;;5.43;1.97;;;5.00;99.90;;;;;;5126867;28;20768;-65
2022/02/06 00:29:10;;;;;;;7.93;3.03;;;5.00;99.90;;;;;;5114305;28;20207;-65
2022/02/06 00:31:49;;;;;;;4.53;2.60;;;5.00;99.90;;;;;;5113092;28;20257;-65
2022/02/06 00:34:42;;;;;;;3.50;1.97;;;5.00;99.90;;;;;;5114630;28;20243;-65
2022/02/06 00:39:51;;;;;;;4.20;2.33;;;5.00;99.90;;;;;;5115986;28;20268;-65
2022/02/06 00:42:18;;;;;;;6.00;2.03;;;4.90;99.90;;;;;;5117220;28;20199;-65
2022/02/06 00:44:45;;;;;;;5.17;1.77;;;4.80;99.90;;;;;;5114419;28;20276;-65
2022/02/06 00:47:11;;;;;;;3.97;1.67;;;4.90;99.90;;;;;;5114402;28;20584;-65
2022/02/06 00:49:39;;;;;;;5.70;1.93;;;5.00;99.90;;;;;;5114012;28;20199;-64
2022/02/06 00:52:12;;;;;;;6.47;1.90;;;5.00;99.90;;;;;;5114715;28;20228;-64
2022/02/06 00:54:39;;;;;;;3.43;1.37;;;5.00;99.90;;;;;;5113636;28;20231;-65
2022/02/06 00:57:06;;;;;;;5.63;1.67;;;5.00;99.90;;;;;;5113631;28;20212;-65
2022/02/06 00:59:33;;;;;;;5.13;1.63;;;5.10;99.90;;;;;;5113984;28;20203;-65
2022/02/06 01:01:59;;;;;;;6.07;1.90;;;5.00;99.90;;;;;;5113242;28;20203;-65
2022/02/06 01:04:28;;;;;;;7.53;1.80;;;5.10;99.90;;;;;;5113088;28;20219;-65
2022/02/06 01:06:54;;;;;;;7.43;2.17;;;5.20;99.90;;;;;;5112800;28;20208;-64
2022/02/06 01:09:23;;;;;;;6.00;1.60;;;5.30;99.90;;;;;;5112742;28;20208;-65
2022/02/06 01:11:51;;;;;;;3.73;1.60;;;5.30;99.90;;;;;;5113038;28;20686;-65
2022/02/06 01:14:27;;;;;;;3.40;1.50;;;5.40;99.90;;;;;;5113785;28;20689;-65
2022/02/06 01:17:01;;;;;;;5.97;1.70;;;5.50;99.90;;;;;;5116844;28;20623;-65
2022/02/06 01:19:38;;;;;;;7.60;1.70;;;5.60;99.90;;;;;;5117008;28;20199;-65
2022/02/06 01:22:08;;;;;;;3.47;1.50;;;5.50;99.90;;;;;;5117871;28;20661;-65
2022/02/06 01:24:42;;;;;;;4.57;1.47;;;5.50;99.90;;;;;;5118452;28;20259;-64
2022/02/06 01:27:12;;;;;;;4.57;1.33;;;5.50;99.90;;;;;;5117001;28;20215;-65
2022/02/06 01:29:46;;;;;;;4.57;1.40;;;5.50;99.90;;;;;;5116966;28;20203;-65
2022/02/06 01:32:16;;;;;;;5.07;1.10;;;5.50;99.90;;;;;;5116577;28;20255;-66
2022/02/06 01:34:47;;;;;;;4.03;1.73;;;5.50;99.90;;;;;;5116581;28;20223;-66
2022/02/06 01:37:22;;;;;;;3.90;1.37;;;5.50;99.90;;;;;;5117290;28;20298;-65
2022/02/06 01:40:06;;;;;;;2.23;1.30;;;5.60;99.90;;;;;;5116803;28;20203;-65
2022/02/06 01:42:39;;;;;;;4.67;1.27;;;5.70;99.90;;;;;;5116396;28;20222;-65
2022/02/06 02:01:47;;;;;;;4.27;1.30;;;5.80;99.90;;;;;;5115742;28;20199;-66
2022/02/06 02:04:20;;;;;;;4.20;1.57;;;5.70;99.90;;;;;;5115726;28;20268;-65
2022/02/06 02:12:27;;;;;;;4.83;1.30;;;5.90;99.90;;;;;;5113010;28;20377;-65
2022/02/06 02:18:07;;;;;;;7.50;1.63;;;6.00;99.90;;;;;;5115557;28;20202;-65
2022/02/06 02:21:00;;;;;;;5.07;1.27;;;5.90;99.90;;;;;;5115677;28;20231;-64
2022/02/06 02:29:27;;;;;;;3.97;1.17;;;6.00;99.90;;;;;;5115352;28;20206;-65
2022/02/06 02:32:11;;;;;;;4.43;1.30;;;6.00;99.90;;;;;;5114793;28;20223;-64
2022/02/06 02:43:44;;;;;;;4.77;1.30;;;6.30;99.90;;;;;;5114937;28;20234;-66
2022/02/06 02:46:11;;;;;;;5.50;1.53;;;6.20;99.90;;;;;;5114642;28;20237;-65
2022/02/06 02:48:41;;;;;;;4.43;1.50;;;6.30;99.90;;;;;;5114896;28;20246;-66
2022/02/06 02:51:09;;;;;;;7.33;1.43;;;6.30;99.90;;;;;;5114688;28;20208;-64
2022/02/06 02:53:41;;;;;;;6.63;1.43;;;6.30;99.90;;;;;;5114728;28;20272;-65
2022/02/06 02:56:23;;;;;;;4.77;1.27;;;6.20;99.90;;;;;;5115060;28;20287;-64
2022/02/06 02:59:00;;;;;;;5.00;1.60;;;6.20;99.90;;;;;;5115590;28;20235;-65
2022/02/06 03:01:32;;;;;;;7.10;1.47;;;6.30;99.90;;;;;;5115032;28;20217;-67
2022/02/06 03:03:59;;;;;;;7.07;1.60;;;6.20;99.90;;;;;;5114891;28;20204;-65
2022/02/06 03:06:25;;;;;;;5.87;1.60;;;6.20;99.90;;;;;;5114623;28;20231;-65
2022/02/06 03:08:55;;;;;;;3.67;1.37;;;6.20;99.90;;;;;;5115082;28;20207;-65
2022/02/06 03:11:22;;;;;;;4.67;1.30;;;6.30;99.90;;;;;;5114701;28;20246;-65
2022/02/06 03:13:56;;;;;;;6.73;1.90;;;6.30;99.90;;;;;;5114407;28;20703;-65
2022/02/06 03:16:26;;;;;;;3.23;1.43;;;6.30;99.90;;;;;;5114424;28;20223;-65
2022/02/06 03:18:59;;;;;;;3.60;1.10;;;6.30;99.90;;;;;;5114192;28;20203;-65
2022/02/06 03:21:28;;;;;;;1.33;1.00;;;6.40;99.90;;;;;;5114239;28;20204;-64
2022/02/06 03:24:06;;;;;;;4.50;1.20;;;6.40;99.90;;;;;;5114417;28;20199;-64
2022/02/06 03:26:33;;;;;;;3.93;1.53;;;6.40;99.90;;;;;;5114274;28;20207;-65
2022/02/06 03:28:59;;;;;;;2.93;1.30;;;6.30;99.90;;;;;;5114171;28;20236;-65
2022/02/06 03:31:26;;;;;;;8.23;1.63;;;6.20;99.90;;;;;;5113619;28;20207;-64
2022/02/06 03:33:53;;;;;;;4.63;1.33;;;6.20;99.90;;;;;;5113621;28;20249;-67
2022/02/06 03:36:20;;;;;;;5.73;1.47;;;6.30;99.90;;;;;;5113872;28;20273;-65
2022/02/06 03:38:51;;;;;;;4.10;1.40;;;6.30;99.90;;;;;;5113728;28;20211;-65
2022/02/06 03:41:19;;;;;;;3.30;1.23;;;6.30;99.90;;;;;;5113723;28;20207;-65
2022/02/06 03:43:54;;;;;;;5.73;1.27;;;6.30;99.90;;;;;;5113776;28;20196;-65
2022/02/06 03:46:27;;;;;;;4.27;1.33;;;6.30;99.90;;;;;;5114378;28;20310;-65
2022/02/06 03:49:02;;;;;;;4.60;1.23;;;6.40;99.90;;;;;;5114546;28;20260;-65
2022/02/06 03:51:32;;;;;;;3.80;1.20;;;6.40;99.90;;;;;;5114143;28;20241;-65
2022/02/06 03:53:59;;;;;;;2.87;1.00;;;6.40;99.90;;;;;;5113917;28;20250;-65
2022/02/06 03:56:29;;;;;;;2.43;1.20;;;6.40;99.90;;;;;;5113509;28;20269;-65
2022/02/06 03:58:57;;;;;;;5.57;1.10;;;6.50;99.90;;;;;;5114220;28;20659;-66
2022/02/06 04:01:24;;;;;;;4.33;1.30;;;6.50;99.90;;;;;;5113408;28;20289;-65
2022/02/06 04:03:50;;;;;;;5.43;1.27;;;6.50;99.90;;;;;;5113766;28;20560;-66
2022/02/06 04:06:17;;;;;;;4.63;1.60;;;6.50;99.90;;;;;;5113413;28;20586;-65
2022/02/06 04:08:44;;;;;;;4.63;1.33;;;6.50;99.90;;;;;;5113526;28;20227;-65
2022/02/06 04:11:16;;;;;;;4.43;1.37;;;6.40;99.90;;;;;;5113877;28;20215;-65
2022/02/06 04:13:55;;;;;;;4.77;1.20;;;6.40;99.90;;;;;;5114157;28;20344;-65
2022/02/06 04:16:37;;;;;;;3.47;1.10;;;6.40;99.90;;;;;;5114157;28;20223;-65
2022/02/06 04:19:16;;;;;;;3.30;1.40;;;6.40;99.90;;;;;;5113831;28;20226;-65
2022/02/06 04:21:43;;;;;;;5.03;1.20;;;6.40;99.90;;;;;;5113019;28;20671;-65
2022/02/06 04:24:09;;;;;;;3.57;1.40;;;6.50;99.90;;;;;;5113338;28;20223;-65
2022/02/06 04:26:36;;;;;;;4.43;1.40;;;6.60;99.90;;;;;;5113282;28;20248;-65
2022/02/06 04:29:05;;;;;;;2.90;1.20;;;6.50;99.90;;;;;;5113416;28;20206;-65
2022/02/06 04:31:32;;;;;;;3.10;1.37;;;6.50;99.90;;;;;;5112821;28;20295;-65
2022/02/06 04:33:59;;;;;;;5.20;1.40;;;6.50;99.90;;;;;;5113261;28;20223;-65
2022/02/06 04:36:31;;;;;;;3.23;1.30;;;6.60;99.90;;;;;;5113020;28;20224;-64
2022/02/06 04:39:09;;;;;;;4.23;1.20;;;6.60;99.90;;;;;;5113068;28;20214;-65
2022/02/06 04:41:51;;;;;;;3.63;1.27;;;6.70;99.90;;;;;;5112565;28;20563;-65
2022/02/06 05:14:51;;;;;;;4.83;1.40;;;6.70;99.90;;;;;;5112422;28;20238;-64
2022/02/06 05:20:58;;;;;;;3.50;1.20;;;6.80;99.90;;;;;;5112467;28;20321;-64
2022/02/06 05:23:46;;;;;;;6.90;1.50;;;6.70;99.90;;;;;;5111936;28;20689;-64
2022/02/06 05:29:07;;;;;;;4.57;1.47;;;6.70;99.90;;;;;;5101086;28;20284;-64
2022/02/06 05:31:43;;;;;;;3.83;1.63;;;6.80;99.90;;;;;;5112079;28;20207;-64
2022/02/06 05:34:11;;;;;;;2.67;1.40;;;6.80;99.90;;;;;;5111944;28;20249;-64
2022/02/06 05:36:37;;;;;;;3.90;1.47;;;6.80;99.90;;;;;;5112399;28;20237;-64
2022/02/06 05:39:04;;;;;;;3.60;1.50;;;6.80;99.90;;;;;;5112330;28;20207;-64
2022/02/06 05:41:31;;;;;;;5.10;1.47;;;6.70;99.90;;;;;;5112064;28;20211;-64
2022/02/06 05:43:58;;;;;;;3.53;1.50;;;6.80;99.90;;;;;;5112053;28;20866;-64
2022/02/06 05:46:24;;;;;;;6.77;1.57;;;6.80;99.90;;;;;;5111847;28;20711;-64
2022/02/06 05:48:51;;;;;;;5.93;1.67;;;6.90;99.90;;;;;;5111984;28;20235;-64
2022/02/06 05:51:19;;;;;;;4.07;1.57;;;6.90;99.90;;;;;;5111903;28;20204;-64
2022/02/06 05:53:46;;;;;;;4.90;1.30;;;7.10;99.90;;;;;;5112009;28;20224;-64
2022/02/06 05:56:16;;;;;;;6.43;1.80;;;7.10;99.90;;;;;;5111746;28;20235;-64
2022/02/06 05:58:43;;;;;;;5.37;1.53;;;7.20;99.90;;;;;;5111764;28;20302;-65
2022/02/06 06:01:09;;;;;;;6.47;1.80;;;7.30;99.90;;;;;;5112406;28;20248;-66
2022/02/06 06:03:36;;;;;;;7.10;1.83;;;7.30;99.90;;;;;;5115540;28;20286;-64
2022/02/06 06:06:03;;;;;;;4.37;1.40;;;7.30;99.90;;;;;;5115656;28;20253;-64
2022/02/06 06:08:31;;;;;;;3.60;1.50;;;7.40;99.90;;;;;;5115654;28;20203;-64
2022/02/06 06:10:57;;;;;;;5.90;1.70;;;7.40;99.90;;;;;;5115683;28;20464;-66
2022/02/06 06:13:24;;;;;;;5.67;1.67;;;7.30;99.90;;;;;;5115046;28;20227;-66
2022/02/06 06:15:52;;;;;;;3.83;1.37;;;7.20;99.90;;;;;;5115324;28;20220;-67
2022/02/06 06:18:18;;;;;;;4.93;1.60;;;7.30;99.90;;;;;;5115512;28;20207;-64
2022/02/06 06:20:46;;;;;;;4.27;1.67;;;7.30;99.90;;;;;;5115405;28;20208;-64
2022/02/06 06:23:13;;;;;;;3.13;1.40;;;7.40;99.90;;;;;;5115124;28;20210;-64
2022/02/06 06:25:43;;;;;;;3.37;1.63;;;7.40;99.90;;;;;;5115184;28;20228;-65
2022/02/06 06:28:10;;;;;;;5.73;1.90;;;7.40;99.90;;;;;;5115055;28;20302;-65
2022/02/06 06:30:37;;;;;;;5.53;1.30;;;7.40;99.90;;;;;;5114996;28;20286;-64
2022/02/06 06:33:04;;;;;;;4.13;1.27;;;7.40;99.90;;;;;;5114987;28;20219;-65
2022/02/06 06:35:31;;;;;;;8.63;1.97;;;7.40;99.90;;;;;;5114875;28;20710;-65
2022/02/06 06:37:59;;;;;;;10.03;5.20;;;7.40;99.90;;;;;;5115008;28;20211;-65
2022/02/06 06:40:26;;;;;;;3.70;1.40;;;7.50;99.90;;;;;;5114930;28;20199;-65
2022/02/06 06:42:54;;;;;;;5.83;1.60;;;7.50;99.90;;;;;;5114588;28;20203;-65
2022/02/06 06:45:22;;;;;;;4.43;2.07;;;7.40;99.90;;;;;;5114619;28;20235;-65
2022/02/06 06:47:52;;;;;;;4.97;1.37;;;7.40;99.90;;;;;;5114894;28;20218;-65
2022/02/06 06:50:19;;;;;;;2.70;1.17;;;7.30;99.90;;;;;;5114715;28;20234;-65
2022/02/06 06:52:47;;;;;;;6.20;1.77;;;7.30;99.90;;;;;;5114238;28;20686;-65
2022/02/06 06:55:17;;;;;;;4.27;1.47;;;7.30;99.90;;;;;;5114450;28;20285;-65
2022/02/06 06:57:52;;;;;;;4.23;1.10;;;7.30;99.90;;;;;;5114379;28;20204;-65
2022/02/06 07:03:01;;;;;;;6.37;1.60;;;7.30;99.90;;;;;;5115851;28;20208;-65
2022/02/06 07:05:27;;;;;;;5.07;1.30;;;7.20;99.90;;;;;;5116405;28;20228;-65
2022/02/06 07:07:56;;;;;;;10.67;1.63;;;7.30;99.90;;;;;;5116700;28;20204;-65
2022/02/06 07:10:23;;;;;;;4.17;1.47;;;7.30;99.90;;;;;;5115132;28;20291;-65
2022/02/06 07:12:50;;;;;;;6.03;1.73;;;7.40;99.90;;;;;;5113981;28;20218;-65
2022/02/06 07:15:17;;;;;;;3.30;1.60;;;7.40;99.90;;;;;;5114177;28;20232;-65
2022/02/06 07:17:45;;;;;;;4.10;1.40;;;7.40;99.90;;;;;;5114230;28;20199;-65
2022/02/06 07:20:12;;;;;;;5.13;1.40;;;7.50;99.90;;;;;;5114221;28;20252;-65
2022/02/06 07:22:39;;;;;;;8.60;1.97;;;7.50;99.90;;;;;;5113808;28;20212;-65
2022/02/06 07:25:07;;;;;;;4.03;1.23;;;7.60;99.90;;;;;;5114110;28;20219;-65
2022/02/06 07:27:37;;;;;;;4.93;1.70;;;7.70;99.90;;;;;;5113875;28;20207;-65
2022/02/06 07:30:07;;;;;;;5.90;1.30;;;7.80;99.90;;;;;;5114241;28;20211;-65
2022/02/06 07:32:36;;;;;;;4.03;1.43;;;7.80;99.90;;;;;;5114341;28;20203;-65
2022/02/06 07:35:06;;;;;;;3.70;2.00;;;7.80;99.90;;;;;;5113704;28;20608;-66
2022/02/06 07:37:32;;;;;;;4.27;1.23;;;7.80;99.90;;;;;;5113903;28;20203;-65
2022/02/06 07:39:59;;;;;;;2.57;1.30;;;7.90;99.90;;;;;;5114123;28;20207;-65
2022/02/06 07:42:26;;;;;;;4.80;1.50;;;8.00;99.90;;;;;;5113473;28;20203;-66
2022/02/06 07:44:52;;;;;;;4.23;1.43;;;8.10;99.90;;;;;;5113637;28;20313;-65
2022/02/06 07:47:21;;;;;;;5.20;1.43;;;8.10;99.90;;;;;;5113488;28;20668;-65
2022/02/06 07:49:50;;;;;;;6.43;1.40;;;8.20;99.90;;;;;;5113442;28;20242;-65
2022/02/06 07:52:20;;;;;;;4.73;1.67;;;8.20;99.90;;;;;;5113595;28;20206;-65
2022/02/06 07:54:47;;;;;;;4.10;1.40;;;8.20;99.90;;;;;;5113401;28;20280;-65
2022/02/06 07:57:14;;;;;;;4.90;1.40;;;8.20;99.90;;;;;;5113432;28;20204;-65
2022/02/06 07:59:41;;;;;;;4.83;1.50;;;8.20;99.90;;;;;;5113326;28;20565;-64
2022/02/06 08:02:08;;;;;;;4.33;1.50;;;8.30;99.90;;;;;;5113793;28;20204;-66
2022/02/06 08:04:36;;;;;;;7.13;1.83;;;8.30;99.90;;;;;;5114129;28;20223;-65
2022/02/06 08:07:03;;;;;;;4.73;1.50;;;8.40;99.90;;;;;;5113447;28;20200;-66
2022/02/06 08:09:50;;;;;;;3.97;1.43;;;8.60;99.90;;;;;;5113436;28;20211;-65
2022/02/06 08:12:25;;;;;;;4.97;2.10;;;8.70;99.90;;;;;;5113015;28;20300;-65
2022/02/06 08:14:54;;;;;;;5.37;1.50;;;8.80;99.90;;;;;;5113318;28;20230;-65
2022/02/06 08:17:24;;;;;;;5.70;1.40;;;8.90;99.90;;;;;;5112874;28;20243;-65
2022/02/06 08:19:50;;;;;;;6.00;1.30;;;9.00;99.90;;;;;;5113075;28;20207;-65
2022/02/06 08:22:17;;;;;;;5.43;2.00;;;9.00;99.90;;;;;;5112668;28;20211;-66
2022/02/06 08:24:45;;;;;;;3.87;1.77;;;9.00;99.90;;;;;;5112144;28;20224;-66
2022/02/06 08:27:12;;;;;;;3.37;1.57;;;9.00;99.90;;;;;;5112605;28;20732;-66
2022/02/06 08:29:42;;;;;;;7.17;2.10;;;9.00;99.90;;;;;;5112965;28;20203;-66
2022/02/06 08:32:09;;;;;;;8.57;1.63;;;8.90;99.90;;;;;;5112703;28;20239;-65
2022/02/06 08:34:36;;;;;;;5.90;1.10;;;8.90;99.90;;;;;;5112769;28;20263;-65
2022/02/06 08:37:04;;;;;;;5.27;1.40;;;9.00;99.90;;;;;;5112660;28;20211;-65
2022/02/06 08:39:32;;;;;;;6.37;1.80;;;9.00;99.90;;;;;;5112558;28;20564;-66
2022/02/06 08:42:00;;;;;;;5.30;1.83;;;9.00;99.90;;;;;;5112543;28;20238;-65
2022/02/06 08:44:29;;;;;;;3.10;1.80;;;9.00;99.90;;;;;;5112663;28;20315;-66
2022/02/06 08:46:56;;;;;;;6.60;2.40;;;9.20;99.90;;;;;;5112544;28;20647;-66
2022/02/06 08:49:23;;;;;;;7.73;3.20;;;9.30;99.90;;;;;;5112591;28;20671;-67
2022/02/06 08:51:50;;;;;;;5.87;2.33;;;9.20;99.90;;;;;;5112199;28;20641;-64
2022/02/06 08:54:17;;;;;;;6.63;2.20;;;9.30;99.90;;;;;;5112040;28;20597;-65
2022/02/06 08:56:43;;;;;;;5.13;2.57;;;9.30;99.90;;;;;;5113123;28;20582;-66
2022/02/06 08:59:12;;;;;;;3.90;1.40;;;9.30;99.90;;;;;;5112583;28;20590;-65
2022/02/06 09:01:39;;;;;;;6.80;1.63;;;9.20;99.90;;;;;;5112310;28;20207;-65
2022/02/06 09:04:06;;;;;;;4.50;1.37;;;9.20;99.90;;;;;;5112388;28;20284;-66
2022/02/06 09:06:35;;;;;;;6.80;1.53;;;9.30;99.90;;;;;;5112478;28;20208;-65
2022/02/06 09:09:02;;;;;;;4.13;1.63;;;9.20;99.90;;;;;;5112212;28;20215;-65
2022/02/06 09:11:29;;;;;;;3.60;1.50;;;9.20;99.90;;;;;;5112225;28;20297;-65
2022/02/06 09:13:56;;;;;;;7.10;1.93;;;9.30;99.90;;;;;;5112298;28;20242;-67
2022/02/06 09:16:26;;;;;;;6.17;1.70;;;9.30;99.90;;;;;;5112263;28;20229;-67
2022/02/06 09:18:53;;;;;;;5.07;1.53;;;9.30;99.90;;;;;;5112293;28;20204;-67
2022/02/06 09:21:21;;;;;;;4.50;1.67;;;9.40;99.90;;;;;;5111926;28;20228;-66
2022/02/06 09:23:48;;;;;;;6.67;1.90;;;9.30;99.90;;;;;;5112089;28;20746;-67
2022/02/06 09:26:15;;;;;;;3.13;1.20;;;9.30;99.90;;;;;;5112247;28;20220;-65
2022/02/06 09:28:43;;;;;;;5.10;1.40;;;9.30;99.90;;;;;;5112144;28;20671;-67
2022/02/06 09:31:09;;;;;;;2.73;1.20;;;9.30;99.90;;;;;;5112255;28;20203;-67
2022/02/06 09:36:04;;;;;;;6.80;1.30;;;9.40;99.90;;;;;;5114229;28;20774;-67
2022/02/06 09:38:30;;;;;;;4.83;1.20;;;9.40;99.90;;;;;;5116216;28;20203;-67
2022/02/06 09:40:57;;;;;;;3.20;1.37;;;9.50;99.90;;;;;;5115902;28;20751;-67
2022/02/06 09:43:24;;;;;;;6.80;1.10;;;9.50;99.90;;;;;;5115620;28;20207;-67
2022/02/06 09:45:50;;;;;;;3.33;1.13;;;9.50;99.90;;;;;;5115625;28;20219;-68
2022/02/06 09:48:17;;;;;;;4.93;1.20;;;9.50;99.90;;;;;;5115773;28;20200;-66
2022/02/06 09:50:46;;;;;;;2.73;1.30;;;9.50;99.90;;;;;;5116039;28;20632;-67
2022/02/06 09:53:13;;;;;;;3.97;1.13;;;9.40;99.90;;;;;;5115718;28;20233;-66
2022/02/06 09:55:42;;;;;;;3.87;1.13;;;9.50;99.90;;;;;;5115558;28;20235;-67
2022/02/06 09:58:19;;;;;;;19.13;10.83;;;9.50;99.90;;;;;;5115756;28;20210;-66
2022/02/06 10:00:46;;;;;;;5.87;1.70;;;9.50;99.90;;;;;;5115677;28;20226;-67
2022/02/06 10:03:14;;;;;;;3.87;1.30;;;9.50;99.90;;;;;;5115526;28;20212;-67
2022/02/06 10:05:45;;;;;;;5.47;1.40;;;9.50;99.90;;;;;;5115627;28;20223;-66
2022/02/06 10:08:15;;;;;;;2.30;1.07;;;9.60;99.90;;;;;;5115681;28;20199;-66
2022/02/06 10:10:52;;;;;;;4.20;1.10;;;9.80;99.90;;;;;;5115648;28;20233;-66
2022/02/06 10:13:19;;;;;;;2.70;1.10;;;9.90;99.90;;;;;;5115368;28;20279;-67
2022/02/06 10:15:46;;;;;;;3.83;1.03;;;9.90;99.90;;;;;;5115568;28;20230;-67
2022/02/06 10:18:13;;;;;;;3.13;1.23;;;9.80;99.90;;;;;;5115755;28;20667;-67
2022/02/06 10:20:45;;;;;;;4.47;1.07;;;9.80;99.90;;;;;;5116874;28;20214;-68
2022/02/06 10:23:25;;;;;;;4.90;1.40;;;9.90;99.90;;;;;;5115456;28;20215;-67
2022/02/06 10:25:53;;;;;;;3.57;1.20;;;9.90;99.90;;;;;;5115418;28;20223;-67
2022/02/06 10:28:34;;;;;;;4.80;1.20;;;10.00;99.90;;;;;;5115815;28;20243;-67
2022/02/06 10:31:04;;;;;;;7.07;1.47;;;10.10;99.90;;;;;;5116220;28;20294;-67
2022/02/06 10:33:45;;;;;;;4.20;1.30;;;10.10;99.90;;;;;;5117590;28;20229;-67
2022/02/06 10:36:12;;;;;;;3.20;1.30;;;10.00;99.90;;;;;;5116096;28;20228;-68
2022/02/06 10:38:40;;;;;;;4.23;1.50;;;10.00;99.90;;;;;;5116602;28;20204;-68
2022/02/06 10:41:10;;;;;;;4.30;1.30;;;10.10;99.90;;;;;;5116079;28;20235;-66
2022/02/06 10:43:38;;;;;;;2.93;1.43;;;10.20;99.90;;;;;;5115599;28;20209;-67
2022/02/06 10:46:10;;;;;;;6.37;2.73;;;10.40;99.90;;;;;;5114915;28;20652;-67
2022/02/06 10:48:45;;;;;;;4.30;1.23;;;10.60;99.90;;;;;;5114914;28;20231;-66
2022/02/06 10:51:35;;;;;;;3.13;0.97;;;10.70;99.90;;;;;;5115038;28;20202;-67
2022/02/06 10:54:04;;;;;;;3.27;1.13;;;10.70;99.90;;;;;;5114749;28;20212;-66
2022/02/06 10:56:31;;;;;;;3.10;1.50;;;10.80;99.90;;;;;;5114846;28;20210;-66
2022/02/06 10:58:59;;;;;;;4.77;1.43;;;10.80;99.90;;;;;;5114920;28;20260;-66
2022/02/06 11:01:28;;;;;;;4.10;1.30;;;10.90;99.90;;;;;;5114673;28;20214;-66
2022/02/06 11:04:13;;;;;;;4.63;1.40;;;10.90;99.90;;;;;;5114513;28;20675;-65
2022/02/06 11:06:44;;;;;;;3.10;1.20;;;11.00;99.90;;;;;;5114612;28;20199;-66
2022/02/06 11:09:24;;;;;;;3.30;1.03;;;11.10;99.90;;;;;;5114468;28;20207;-66
2022/02/06 11:11:50;;;;;;;2.33;1.20;;;11.00;99.90;;;;;;5114172;28;20218;-66
2022/02/06 11:14:23;;;;;;;4.60;1.20;;;11.00;99.90;;;;;;5114578;28;20204;-66
2022/02/06 11:16:50;;;;;;;3.63;1.13;;;11.00;99.90;;;;;;5114220;28;20683;-66
2022/02/06 11:19:18;;;;;;;4.47;1.27;;;10.90;99.90;;;;;;5114432;28;20667;-66
2022/02/06 11:21:45;;;;;;;5.23;1.30;;;10.90;99.90;;;;;;5113867;28;20208;-66
2022/02/06 11:24:19;;;;;;;4.33;2.43;;;10.90;99.90;;;;;;5113961;28;20264;-66
2022/02/06 11:26:48;;;;;;;4.53;1.43;;;11.00;99.90;;;;;;5114338;28;20215;-67
2022/02/06 11:29:15;;;;;;;3.73;1.17;;;10.90;99.90;;;;;;5113902;28;20211;-66
2022/02/06 11:31:42;;;;;;;2.67;1.10;;;10.90;99.90;;;;;;5113966;28;20204;-66
2022/02/06 11:34:15;;;;;;;4.30;1.37;;;10.90;99.90;;;;;;5114127;28;20203;-66
2022/02/06 11:43:43;;;;;;;2.37;0.97;;;10.90;99.90;;;;;;5070850;28;20748;-66
2022/02/06 11:45:53;;;;;;;2.37;0.93;;;10.80;99.90;;;;;;5110798;28;20640;-63
2022/02/06 11:48:21;;;;;;;1.67;0.97;;;10.70;99.90;;;;;;5113944;28;20691;-64
2022/02/06 11:50:50;;;;;;;4.20;1.40;;;10.60;99.90;;;;;;5110755;28;20587;-66
2022/02/06 11:53:29;;;;;;;4.03;1.23;;;10.50;99.90;;;;;;5113351;28;20223;-65
2022/02/06 11:55:58;;;;;;;5.00;1.40;;;10.40;99.90;;;;;;5113551;28;20224;-66
2022/02/06 11:58:28;;;;;;;4.10;1.50;;;10.40;99.90;;;;;;5112859;28;20203;-64
2022/02/06 12:01:21;;;;;;;3.37;1.47;;;10.40;99.90;;;;;;5110628;28;20667;-63
2022/02/06 12:03:53;;;;;;;3.10;1.70;;;10.40;99.90;;;;;;5092602;28;20303;-63
2022/02/06 12:06:21;;;;;;;4.77;1.53;;;10.40;99.90;;;;;;5092934;28;20242;-64
2022/02/06 12:09:12;;;;;;;2.07;1.10;;;10.40;99.90;;;;;;5092985;28;20215;-65
2022/02/06 12:11:40;;;;;;;5.53;1.30;;;10.50;99.90;;;;;;5092874;28;20715;-69
2022/02/06 12:14:13;;;;;;;10.30;4.37;;;10.50;99.90;;;;;;5092748;28;20207;-66
2022/02/06 12:16:49;;;;;;;3.10;1.23;;;10.60;99.90;;;;;;5093293;28;20678;-68
2022/02/06 12:19:27;;;;;;;3.00;1.70;;;10.70;99.90;;;;;;5093000;28;20234;-65
2022/02/06 12:21:54;;;;;;;10.10;3.33;;;10.90;99.90;;;;;;5092679;28;20261;-66
2022/02/06 12:24:37;;;;;;;2.10;0.87;;;10.90;99.90;;;;;;5092839;28;20219;-65
2022/02/06 12:27:24;;;;;;;3.80;1.33;;;11.00;99.90;;;;;;5093261;28;20204;-64
2022/02/06 12:29:58;;;;;;;3.77;1.50;;;11.00;99.90;;;;;;5093261;28;20208;-67
2022/02/06 12:32:33;;;;;;;2.13;1.30;;;11.00;99.90;;;;;;5093039;28;20689;-66
2022/02/06 12:37:46;;;;;;;2.73;1.17;;;10.90;99.90;;;;;;5096424;28;20627;-66
2022/02/06 12:40:15;;;;;;;2.40;0.93;;;10.90;99.90;;;;;;5093156;28;20211;-67
2022/02/06 12:42:43;;;;;;;2.13;0.93;;;10.90;99.90;;;;;;5092679;28;20212;-68
2022/02/06 12:45:13;;;;;;;3.50;0.90;;;10.80;99.90;;;;;;5092288;28;20311;-63
2022/02/06 12:47:42;;;;;;;1.97;1.20;;;10.80;99.90;;;;;;5092095;28;20223;-63
2022/02/06 12:50:18;;;;;;;4.17;0.90;;;10.80;99.90;;;;;;5092476;28;20200;-64
2022/02/06 12:52:45;;;;;;;3.43;1.30;;;10.80;99.90;;;;;;5092206;28;20199;-63
2022/02/06 12:55:12;;;;;;;4.13;1.57;;;10.80;99.90;;;;;;5092129;28;20236;-64
2022/02/06 12:57:44;;;;;;;3.03;0.73;;;10.50;99.90;;;;;;5092154;28;20208;-64
2022/02/06 13:00:24;;;;;;;1.83;0.87;;;10.30;99.90;;;;;;5092110;28;20211;-63
2022/02/06 13:02:50;;;;;;;1.93;0.80;;;10.30;99.90;;;;;;5092270;28;20243;-63
2022/02/06 13:05:18;;;;;;;5.57;1.50;;;10.30;99.90;;;;;;5092196;28;20226;-64
2022/02/06 13:07:45;;;;;;;3.03;1.00;;;10.20;99.90;;;;;;5092720;28;20682;-63
2022/02/06 13:10:13;;;;;;;2.83;0.77;;;10.20;99.90;;;;;;5092967;28;20411;-63
2022/02/06 13:12:46;;;;;;;1.17;0.80;;;10.20;99.90;;;;;;5095949;28;20204;-63
2022/02/06 13:18:32;;;;;;;4.13;0.83;;;10.40;99.90;;;;;;5053668;28;20204;-62
2022/02/06 13:24:02;;;;;;;1.23;0.63;;;10.50;99.90;;;;;;5093960;28;20203;-63
2022/02/06 13:26:36;;;;;;;1.23;0.77;;;10.50;99.90;;;;;;5096156;28;20204;-62
2022/02/06 13:29:13;;;;;;;1.93;0.50;;;10.40;99.90;;;;;;5095681;28;20211;-63
2022/02/06 13:32:08;;;;;;;0.80;0.63;;;10.50;99.90;;;;;;5095817;28;20203;-62
2022/02/06 13:34:48;;;;;;;1.97;1.20;;;10.30;99.90;;;;;;5095819;28;20257;-62
2022/02/06 13:37:24;;;;;;;2.37;0.80;;;10.30;99.90;;;;;;5095846;28;20200;-62
2022/02/06 13:39:55;;;;;;;2.67;1.30;;;10.40;99.90;;;;;;5095814;28;20223;-62
2022/02/06 13:42:29;;;;;;;2.87;1.10;;;10.50;99.90;;;;;;5095759;28;20200;-64
2022/02/06 13:45:09;;;;;;;3.43;0.83;;;10.50;99.90;;;;;;5095592;28;20231;-62
2022/02/06 13:47:37;;;;;;;2.50;1.40;;;10.40;99.90;;;;;;5095516;28;20218;-62
2022/02/06 13:50:08;;;;;;;2.37;1.03;;;10.30;99.90;;;;;;5095504;28;20231;-64
2022/02/06 13:52:39;;;;;;;1.13;0.60;;;10.20;99.90;;;;;;5095564;28;20204;-63
2022/02/06 13:55:06;;;;;;;1.73;0.60;;;10.20;99.90;;;;;;5095541;28;20239;-63
2022/02/06 13:57:35;;;;;;;2.27;0.70;;;10.20;99.90;;;;;;5095619;28;20687;-63
2022/02/06 14:00:09;;;;;;;2.80;1.27;;;10.20;99.90;;;;;;5095487;28;20737;-62
2022/02/06 14:02:38;;;;;;;1.57;0.60;;;10.10;99.90;;;;;;5095006;28;20212;-62
2022/02/06 14:05:08;;;;;;;1.87;0.60;;;10.00;99.90;;;;;;5095371;28;20259;-62
2022/02/06 14:07:35;;;;;;;2.87;0.40;;;9.90;99.90;;;;;;5095922;28;20215;-63
2022/02/06 14:10:08;;;;;;;1.17;0.70;;;9.90;99.90;;;;;;5096138;28;20265;-64
2022/02/06 14:12:49;;;;;;;1.17;0.70;;;9.90;99.90;;;;;;5095328;28;20580;-64
2022/02/06 14:15:22;;;;;;;1.80;0.40;;;9.70;99.90;;;;;;5095503;28;20220;-63
2022/02/06 14:17:52;;;;;;;3.03;1.40;;;9.70;99.90;;;;;;5095209;28;20287;-62
2022/02/06 14:20:24;;;;;;;0.77;0.40;;;9.60;99.90;;;;;;5095308;28;20204;-64
2022/02/06 14:22:53;;;;;;;2.10;0.80;;;9.50;99.90;;;;;;5093688;28;20226;-64
2022/02/06 14:25:28;;;;;;;6.13;5.50;;;9.40;99.90;;;;;;5095078;28;20224;-64
2022/02/06 14:27:56;;;;;;;1.33;0.60;;;9.30;99.90;;;;;;5095104;28;20732;-62
2022/02/06 14:30:27;;;;;;;1.73;0.77;;;9.30;99.90;;;;;;5095019;28;20258;-63
2022/02/06 14:33:01;;;;;;;2.37;1.17;;;9.20;99.90;;;;;;5094975;28;20200;-64
2022/02/06 14:35:48;;;;;;;0.90;0.60;;;9.20;99.90;;;;;;5094926;28;20228;-62
2022/02/06 14:38:22;;;;;;;0.67;0.47;;;9.20;99.90;;;;;;5094844;28;20207;-63
2022/02/06 14:40:53;;;;;;;2.70;0.77;;;9.20;99.90;;;;;;5094857;28;20219;-62
2022/02/06 14:43:36;;;;;;;1.47;0.77;;;9.20;99.90;;;;;;5094561;28;20204;-62
2022/02/06 14:46:05;;;;;;;1.13;0.60;;;9.10;99.90;;;;;;5094711;28;20715;-64
2022/02/06 14:48:33;;;;;;;1.00;0.53;;;9.00;99.90;;;;;;5094735;28;20208;-63
2022/02/06 14:51:00;;;;;;;2.40;1.63;;;8.90;99.90;;;;;;5095150;28;20304;-63
2022/02/06 14:53:28;;;;;;;0.50;0.30;;;8.90;99.90;;;;;;5094654;28;20207;-63